sensor_id;sensor_type;location;lat;lon;timestamp;pressure;altitude;pressure_sealevel;temperature;humidity
60355;BME280;46198;51.464;-0.066;2023-05-02T00:02:27;102117.53;;;13.70;100.00
60355;BME280;46198;51.464;-0.066;2023-05-02T00:04:55;102115.88;;;13.63;100.00
60355;BME280;46198;51.464;-0.066;2023-05-02T00:07:27;102126.34;;;13.59;100.00
60355;BME280;46198;51.464;-0.066;2023-05-02T00:09:55;102131.38;;;13.56;100.00
60355;BME280;46198;51.464;-0.066;2023-05-02T00:12:23;102130.97;;;13.52;100.00
60355;BME280;46198;51.464;-0.066;2023-05-02T00:14:51;102131.38;;;13.49;100.00
60355;BME280;46198;51.464;-0.066;2023-05-02T00:17:21;102135.56;;;13.45;100.00
60355;BME280;46198;51.464;-0.066;2023-05-02T00:19:49;102136.63;;;13.44;100.00
60355;BME280;46198;51.464;-0.066;2023-05-02T00:22:17;102132.19;;;13.43;100.00
60355;BME280;46198;51.464;-0.066;2023-05-02T00:24:45;102136.41;;;13.39;100.00
60355;BME280;46198;51.464;-0.066;2023-05-02T00:27:13;102135.56;;;13.38;100.00
60355;BME280;46198;51.464;-0.066;2023-05-02T00:29:41;102139.72;;;13.41;100.00
60355;BME280;46198;51.464;-0.066;2023-05-02T00:35:54;102132.16;;;13.29;100.00
60355;BME280;46198;51.464;-0.066;2023-05-02T00:38:22;102140.56;;;13.28;100.00
60355;BME280;46198;51.464;-0.066;2023-05-02T00:40:50;102137.00;;;13.27;100.00
60355;BME280;46198;51.464;-0.066;2023-05-02T00:43:19;102142.19;;;13.22;100.00
60355;BME280;46198;51.464;-0.066;2023-05-02T00:45:47;102130.44;;;13.22;100.00
60355;BME280;46198;51.464;-0.066;2023-05-02T00:48:15;102136.50;;;13.17;100.00
60355;BME280;46198;51.464;-0.066;2023-05-02T00:50:46;102147.19;;;13.12;100.00
60355;BME280;46198;51.464;-0.066;2023-05-02T00:53:15;102150.34;;;13.09;100.00
60355;BME280;46198;51.464;-0.066;2023-05-02T00:55:43;102152.00;;;13.10;100.00
60355;BME280;46198;51.464;-0.066;2023-05-02T00:58:14;102149.28;;;13.10;100.00
60355;BME280;46198;51.464;-0.066;2023-05-02T01:00:53;102147.16;;;13.05;100.00
60355;BME280;46198;51.464;-0.066;2023-05-02T01:03:31;102152.59;;;13.05;100.00
60355;BME280;46198;51.464;-0.066;2023-05-02T01:06:11;102155.56;;;13.04;100.00
60355;BME280;46198;51.464;-0.066;2023-05-02T01:08:49;102160.53;;;12.94;100.00
60355;BME280;46198;51.464;-0.066;2023-05-02T01:11:29;102156.97;;;12.93;100.00
60355;BME280;46198;51.464;-0.066;2023-05-02T01:14:04;102164.31;;;12.93;100.00
60355;BME280;46198;51.464;-0.066;2023-05-02T01:16:33;102166.81;;;12.88;100.00
60355;BME280;46198;51.464;-0.066;2023-05-02T01:19:08;102168.25;;;12.83;100.00
60355;BME280;46198;51.464;-0.066;2023-05-02T01:21:39;102169.09;;;12.84;100.00
60355;BME280;46198;51.464;-0.066;2023-05-02T01:24:15;102173.03;;;12.75;100.00
60355;BME280;46198;51.464;-0.066;2023-05-02T01:26:53;102170.91;;;12.70;100.00
60355;BME280;46198;51.464;-0.066;2023-05-02T01:29:28;102176.75;;;12.67;100.00
60355;BME280;46198;51.464;-0.066;2023-05-02T01:31:59;102172.13;;;12.61;100.00
60355;BME280;46198;51.464;-0.066;2023-05-02T01:34:29;102170.03;;;12.63;100.00
60355;BME280;46198;51.464;-0.066;2023-05-02T01:37:00;102169.56;;;12.53;100.00
60355;BME280;46198;51.464;-0.066;2023-05-02T01:39:58;102167.88;;;12.52;100.00
60355;BME280;46198;51.464;-0.066;2023-05-02T01:42:28;102171.38;;;12.46;100.00
60355;BME280;46198;51.464;-0.066;2023-05-02T01:44:58;102174.06;;;12.39;100.00
60355;BME280;46198;51.464;-0.066;2023-05-02T01:47:55;102177.19;;;12.36;100.00
60355;BME280;46198;51.464;-0.066;2023-05-02T01:50:25;102176.13;;;12.30;100.00
60355;BME280;46198;51.464;-0.066;2023-05-02T01:52:54;102183.63;;;12.28;100.00
60355;BME280;46198;51.464;-0.066;2023-05-02T01:55:24;102194.28;;;12.23;100.00
60355;BME280;46198;51.464;-0.066;2023-05-02T01:57:54;102195.75;;;12.26;100.00
60355;BME280;46198;51.464;-0.066;2023-05-02T02:00:25;102202.03;;;12.26;100.00
60355;BME280;46198;51.464;-0.066;2023-05-02T02:02:55;102203.28;;;12.24;100.00
60355;BME280;46198;51.464;-0.066;2023-05-02T02:05:25;102211.69;;;12.29;100.00
60355;BME280;46198;51.464;-0.066;2023-05-02T02:07:55;102203.28;;;12.24;100.00
60355;BME280;46198;51.464;-0.066;2023-05-02T02:10:25;102210.81;;;12.22;100.00
60355;BME280;46198;51.464;-0.066;2023-05-02T02:13:00;102208.28;;;12.20;100.00
60355;BME280;46198;51.464;-0.066;2023-05-02T02:15:34;102207.72;;;12.25;100.00
60355;BME280;46198;51.464;-0.066;2023-05-02T02:18:06;102206.66;;;12.26;100.00
60355;BME280;46198;51.464;-0.066;2023-05-02T02:20:38;102205.59;;;12.27;100.00
60355;BME280;46198;51.464;-0.066;2023-05-02T02:23:10;102216.06;;;12.23;100.00
60355;BME280;46198;51.464;-0.066;2023-05-02T02:25:39;102212.94;;;12.26;100.00
60355;BME280;46198;51.464;-0.066;2023-05-02T02:28:07;102226.38;;;12.28;100.00
60355;BME280;46198;51.464;-0.066;2023-05-02T02:30:37;102223.00;;;12.26;100.00
60355;BME280;46198;51.464;-0.066;2023-05-02T02:33:05;102229.75;;;12.30;100.00
60355;BME280;46198;51.464;-0.066;2023-05-02T02:35:37;102230.31;;;12.25;100.00
60355;BME280;46198;51.464;-0.066;2023-05-02T02:38:12;102231.75;;;12.21;100.00
60355;BME280;46198;51.464;-0.066;2023-05-02T02:40:44;102244.34;;;12.22;100.00
60355;BME280;46198;51.464;-0.066;2023-05-02T02:43:19;102234.72;;;12.26;100.00
60355;BME280;46198;51.464;-0.066;2023-05-02T02:45:56;102237.44;;;12.26;100.00
60355;BME280;46198;51.464;-0.066;2023-05-02T02:48:33;102239.06;;;12.20;100.00
60355;BME280;46198;51.464;-0.066;2023-05-02T02:51:07;102246.84;;;12.24;100.00
60355;BME280;46198;51.464;-0.066;2023-05-02T02:53:49;102242.91;;;12.26;100.00
60355;BME280;46198;51.464;-0.066;2023-05-02T02:56:25;102247.72;;;12.24;100.00
60355;BME280;46198;51.464;-0.066;2023-05-02T02:58:57;102256.50;;;12.26;100.00
60355;BME280;46198;51.464;-0.066;2023-05-02T03:01:30;102256.13;;;12.29;100.00
60355;BME280;46198;51.464;-0.066;2023-05-02T03:04:01;102256.50;;;12.26;100.00
60355;BME280;46198;51.464;-0.066;2023-05-02T03:06:32;102256.97;;;12.30;100.00
60355;BME280;46198;51.464;-0.066;2023-05-02T03:09:01;102256.97;;;12.30;100.00
60355;BME280;46198;51.464;-0.066;2023-05-02T03:11:29;102261.78;;;12.28;100.00
60355;BME280;46198;51.464;-0.066;2023-05-02T03:13:57;102264.94;;;12.31;100.00
60355;BME280;46198;51.464;-0.066;2023-05-02T03:16:37;102259.72;;;12.30;100.00
60355;BME280;46198;51.464;-0.066;2023-05-02T03:19:10;102263.66;;;12.27;100.00
60355;BME280;46198;51.464;-0.066;2023-05-02T03:21:38;102270.38;;;12.31;100.00
60355;BME280;46198;51.464;-0.066;2023-05-02T03:24:13;102268.72;;;12.30;100.00
60355;BME280;46198;51.464;-0.066;2023-05-02T03:26:45;102277.69;;;12.24;100.00
60355;BME280;46198;51.464;-0.066;2023-05-02T03:29:16;102280.63;;;12.29;100.00
60355;BME280;46198;51.464;-0.066;2023-05-02T03:31:46;102271.84;;;12.27;100.00
60355;BME280;46198;51.464;-0.066;2023-05-02T03:34:14;102279.78;;;12.29;100.00
60355;BME280;46198;51.464;-0.066;2023-05-02T03:36:45;102280.84;;;12.28;100.00
60355;BME280;46198;51.464;-0.066;2023-05-02T03:39:14;102286.72;;;12.31;100.00
60355;BME280;46198;51.464;-0.066;2023-05-02T03:41:43;102280.63;;;12.29;100.00
60355;BME280;46198;51.464;-0.066;2023-05-02T03:44:41;102277.53;;;12.32;100.00
60355;BME280;46198;51.464;-0.066;2023-05-02T03:47:10;102286.06;;;12.29;100.00
60355;BME280;46198;51.464;-0.066;2023-05-02T03:49:41;102291.06;;;12.26;100.00
60355;BME280;46198;51.464;-0.066;2023-05-02T03:52:09;102290.09;;;12.33;100.00
60355;BME280;46198;51.464;-0.066;2023-05-02T03:54:38;102287.00;;;12.15;100.00
60355;BME280;46198;51.464;-0.066;2023-05-02T03:57:08;102297.31;;;12.19;100.00
60355;BME280;46198;51.464;-0.066;2023-05-02T03:59:36;102292.88;;;12.18;100.00
60355;BME280;46198;51.464;-0.066;2023-05-02T04:02:16;102291.78;;;12.13;100.00
60355;BME280;46198;51.464;-0.066;2023-05-02T04:04:47;102292.84;;;12.12;100.00
60355;BME280;46198;51.464;-0.066;2023-05-02T04:07:44;102302.63;;;12.06;100.00
60355;BME280;46198;51.464;-0.066;2023-05-02T04:10:13;102318.16;;;11.91;100.00
60355;BME280;46198;51.464;-0.066;2023-05-02T04:12:50;102316.75;;;11.95;100.00
60355;BME280;46198;51.464;-0.066;2023-05-02T04:15:19;102327.13;;;12.06;100.00
60355;BME280;46198;51.464;-0.066;2023-05-02T04:17:51;102329.00;;;12.06;100.00
60355;BME280;46198;51.464;-0.066;2023-05-02T04:20:19;102321.59;;;12.00;100.00
60355;BME280;46198;51.464;-0.066;2023-05-02T04:22:50;102325.56;;;11.97;100.00
60355;BME280;46198;51.464;-0.066;2023-05-02T04:25:18;102327.81;;;11.93;100.00
60355;BME280;46198;51.464;-0.066;2023-05-02T04:27:49;102326.59;;;11.96;100.00
60355;BME280;46198;51.464;-0.066;2023-05-02T04:30:20;102331.97;;;11.89;100.00
60355;BME280;46198;51.464;-0.066;2023-05-02T04:33:01;102334.19;;;12.01;100.00
60355;BME280;46198;51.464;-0.066;2023-05-02T04:35:33;102332.88;;;11.96;100.00
60355;BME280;46198;51.464;-0.066;2023-05-02T04:38:28;102331.13;;;11.89;100.00
60355;BME280;46198;51.464;-0.066;2023-05-02T04:40:56;102333.66;;;11.90;100.00
60355;BME280;46198;51.464;-0.066;2023-05-02T04:43:32;102339.47;;;11.87;100.00
60355;BME280;46198;51.464;-0.066;2023-05-02T04:46:01;102342.19;;;11.87;100.00
60355;BME280;46198;51.464;-0.066;2023-05-02T04:48:34;102347.91;;;11.92;100.00
60355;BME280;46198;51.464;-0.066;2023-05-02T04:51:03;102346.69;;;11.95;100.00
60355;BME280;46198;51.464;-0.066;2023-05-02T04:53:31;102359.47;;;11.94;100.00
60355;BME280;46198;51.464;-0.066;2023-05-02T04:55:59;102361.72;;;11.91;100.00
60355;BME280;46198;51.464;-0.066;2023-05-02T04:58:28;102364.25;;;11.92;100.00
60355;BME280;46198;51.464;-0.066;2023-05-02T05:01:01;102362.94;;;11.88;100.00
60355;BME280;46198;51.464;-0.066;2023-05-02T05:03:30;102377.28;;;11.82;100.00
60355;BME280;46198;51.464;-0.066;2023-05-02T05:06:01;102381.50;;;11.85;100.00
60355;BME280;46198;51.464;-0.066;2023-05-02T05:08:30;102374.84;;;11.72;100.00
60355;BME280;46198;51.464;-0.066;2023-05-02T05:10:58;102383.38;;;11.69;100.00
60355;BME280;46198;51.464;-0.066;2023-05-02T05:13:27;102382.94;;;11.66;100.00
60355;BME280;46198;51.464;-0.066;2023-05-02T05:15:56;102386.03;;;11.63;100.00
60355;BME280;46198;51.464;-0.066;2023-05-02T05:18:27;102388.00;;;11.69;100.00
60355;BME280;46198;51.464;-0.066;2023-05-02T05:20:56;102387.59;;;11.72;100.00
60355;BME280;46198;51.464;-0.066;2023-05-02T05:23:25;102398.03;;;11.68;100.00
60355;BME280;46198;51.464;-0.066;2023-05-02T05:25:54;102405.84;;;11.57;100.00
60355;BME280;46198;51.464;-0.066;2023-05-02T05:28:22;102405.47;;;11.60;100.00
60355;BME280;46198;51.464;-0.066;2023-05-02T05:30:50;102401.31;;;11.64;100.00
60355;BME280;46198;51.464;-0.066;2023-05-02T05:33:21;102404.63;;;11.59;100.00
60355;BME280;46198;51.464;-0.066;2023-05-02T05:35:50;102414.47;;;11.60;100.00
60355;BME280;46198;51.464;-0.066;2023-05-02T05:38:18;102414.63;;;11.59;100.00
60355;BME280;46198;51.464;-0.066;2023-05-02T05:40:49;102424.50;;;11.60;100.00
60355;BME280;46198;51.464;-0.066;2023-05-02T05:43:18;102421.03;;;11.51;100.00
60355;BME280;46198;51.464;-0.066;2023-05-02T05:45:46;102420.16;;;11.50;100.00
60355;BME280;46198;51.464;-0.066;2023-05-02T05:48:14;102425.16;;;11.47;100.00
60355;BME280;46198;51.464;-0.066;2023-05-02T05:50:44;102429.38;;;11.49;100.00
60355;BME280;46198;51.464;-0.066;2023-05-02T05:53:13;102441.84;;;11.44;100.00
60355;BME280;46198;51.464;-0.066;2023-05-02T05:55:43;102446.91;;;11.47;100.00
60355;BME280;46198;51.464;-0.066;2023-05-02T05:58:12;102451.59;;;11.38;100.00
60355;BME280;46198;51.464;-0.066;2023-05-02T06:00:42;102454.19;;;11.31;100.00
60355;BME280;46198;51.464;-0.066;2023-05-02T06:03:10;102449.03;;;11.22;100.00
60355;BME280;46198;51.464;-0.066;2023-05-02T06:05:39;102454.94;;;11.25;100.00
60355;BME280;46198;51.464;-0.066;2023-05-02T06:08:07;102462.25;;;11.25;100.00
60355;BME280;46198;51.464;-0.066;2023-05-02T06:10:35;102467.03;;;11.23;100.00
60355;BME280;46198;51.464;-0.066;2023-05-02T06:13:04;102460.00;;;11.28;100.00
60355;BME280;46198;51.464;-0.066;2023-05-02T06:15:37;102468.81;;;11.30;100.00
60355;BME280;46198;51.464;-0.066;2023-05-02T06:18:05;102472.88;;;11.35;100.00
60355;BME280;46198;51.464;-0.066;2023-05-02T06:20:34;102466.56;;;11.34;100.00
60355;BME280;46198;51.464;-0.066;2023-05-02T06:23:02;102462.56;;;11.30;100.00
60355;BME280;46198;51.464;-0.066;2023-05-02T06:25:31;102470.50;;;11.31;100.00
60355;BME280;46198;51.464;-0.066;2023-05-02T06:27:59;102472.88;;;11.35;100.00
60355;BME280;46198;51.464;-0.066;2023-05-02T06:30:27;102464.22;;;11.31;100.00
60355;BME280;46198;51.464;-0.066;2023-05-02T06:32:56;102475.41;;;11.36;100.00
60355;BME280;46198;51.464;-0.066;2023-05-02T06:35:25;102472.00;;;11.34;100.00
60355;BME280;46198;51.464;-0.066;2023-05-02T06:37:52;102475.59;;;11.35;100.00
60355;BME280;46198;51.464;-0.066;2023-05-02T06:40:20;102474.56;;;11.36;100.00
60355;BME280;46198;51.464;-0.066;2023-05-02T06:42:48;102474.72;;;11.34;100.00
60355;BME280;46198;51.464;-0.066;2023-05-02T06:45:20;102467.41;;;11.20;100.00
60355;BME280;46198;51.464;-0.066;2023-05-02T06:47:49;102471.63;;;11.37;100.00
60355;BME280;46198;51.464;-0.066;2023-05-02T06:50:19;102480.47;;;11.39;100.00
60355;BME280;46198;51.464;-0.066;2023-05-02T06:52:47;102479.09;;;11.43;100.00
60355;BME280;46198;51.464;-0.066;2023-05-02T06:55:15;102476.75;;;11.55;100.00
60355;BME280;46198;51.464;-0.066;2023-05-02T06:57:43;102488.66;;;11.54;100.00
60355;BME280;46198;51.464;-0.066;2023-05-02T07:00:13;102484.44;;;11.66;100.00
60355;BME280;46198;51.464;-0.066;2023-05-02T07:02:41;102491.38;;;11.69;100.00
60355;BME280;46198;51.464;-0.066;2023-05-02T07:05:09;102490.38;;;11.70;100.00
60355;BME280;46198;51.464;-0.066;2023-05-02T07:07:38;102489.41;;;11.63;100.00
60355;BME280;46198;51.464;-0.066;2023-05-02T07:10:07;102496.28;;;11.73;100.00
60355;BME280;46198;51.464;-0.066;2023-05-02T07:12:36;102496.66;;;11.70;100.00
60355;BME280;46198;51.464;-0.066;2023-05-02T07:15:05;102496.75;;;11.77;100.00
60355;BME280;46198;51.464;-0.066;2023-05-02T07:17:33;102490.91;;;11.80;100.00
60355;BME280;46198;51.464;-0.066;2023-05-02T07:20:01;102509.59;;;11.83;100.00
60355;BME280;46198;51.464;-0.066;2023-05-02T07:27:28;102511.00;;;11.79;100.00
60355;BME280;46198;51.464;-0.066;2023-05-02T07:29:56;102506.41;;;11.80;100.00
60355;BME280;46198;51.464;-0.066;2023-05-02T07:32:25;102513.50;;;11.89;100.00
60355;BME280;46198;51.464;-0.066;2023-05-02T07:34:53;102514.03;;;11.84;100.00
60355;BME280;46198;51.464;-0.066;2023-05-02T07:37:22;102510.25;;;11.70;100.00
60355;BME280;46198;51.464;-0.066;2023-05-02T07:39:50;102509.50;;;11.76;100.00
60355;BME280;46198;51.464;-0.066;2023-05-02T07:42:18;102511.00;;;11.79;100.00
60355;BME280;46198;51.464;-0.066;2023-05-02T07:44:47;102520.84;;;11.80;100.00
60355;BME280;46198;51.464;-0.066;2023-05-02T07:47:15;102517.59;;;11.70;100.00
60355;BME280;46198;51.464;-0.066;2023-05-02T07:49:43;102525.91;;;11.83;100.00
60355;BME280;46198;51.464;-0.066;2023-05-02T07:52:11;102524.88;;;11.69;100.00
60355;BME280;46198;51.464;-0.066;2023-05-02T07:55:05;102531.09;;;11.78;100.00
60355;BME280;46198;51.464;-0.066;2023-05-02T07:57:33;102522.28;;;11.76;100.00
60355;BME280;46198;51.464;-0.066;2023-05-02T08:00:03;102529.03;;;11.80;100.00
60355;BME280;46198;51.464;-0.066;2023-05-02T08:02:40;102518.63;;;11.84;100.00
60355;BME280;46198;51.464;-0.066;2023-05-02T08:05:08;102525.03;;;11.91;100.00
60355;BME280;46198;51.464;-0.066;2023-05-02T08:07:36;102527.63;;;11.84;100.00
60355;BME280;46198;51.464;-0.066;2023-05-02T08:10:05;102526.38;;;11.72;100.00
60355;BME280;46198;51.464;-0.066;2023-05-02T08:12:37;102527.81;;;11.83;100.00
60355;BME280;46198;51.464;-0.066;2023-05-02T08:15:10;102531.44;;;11.75;100.00
60355;BME280;46198;51.464;-0.066;2023-05-02T08:17:39;102533.78;;;11.86;100.00
60355;BME280;46198;51.464;-0.066;2023-05-02T08:20:07;102531.31;;;11.91;100.00
60355;BME280;46198;51.464;-0.066;2023-05-02T08:22:35;102532.63;;;11.95;100.00
60355;BME280;46198;51.464;-0.066;2023-05-02T08:25:04;102528.59;;;11.91;100.00
60355;BME280;46198;51.464;-0.066;2023-05-02T08:27:33;102536.03;;;11.97;100.00
60355;BME280;46198;51.464;-0.066;2023-05-02T08:30:01;102534.69;;;11.93;100.00
60355;BME280;46198;51.464;-0.066;2023-05-02T08:32:32;102541.47;;;11.97;100.00
60355;BME280;46198;51.464;-0.066;2023-05-02T08:35:00;102535.53;;;11.94;100.00
60355;BME280;46198;51.464;-0.066;2023-05-02T08:37:29;102533.31;;;11.97;100.00
60355;BME280;46198;51.464;-0.066;2023-05-02T08:39:58;102534.31;;;11.96;100.00
60355;BME280;46198;51.464;-0.066;2023-05-02T08:42:27;102542.78;;;12.02;100.00
60355;BME280;46198;51.464;-0.066;2023-05-02T08:44:56;102537.25;;;11.95;100.00
60355;BME280;46198;51.464;-0.066;2023-05-02T08:47:25;102548.72;;;12.05;100.00
60355;BME280;46198;51.464;-0.066;2023-05-02T08:49:57;102556.38;;;11.87;100.00
60355;BME280;46198;51.464;-0.066;2023-05-02T08:52:26;102559.47;;;11.98;100.00
60355;BME280;46198;51.464;-0.066;2023-05-02T08:54:55;102567.28;;;11.87;100.00
60355;BME280;46198;51.464;-0.066;2023-05-02T08:57:25;102563.75;;;11.78;100.00
60355;BME280;46198;51.464;-0.066;2023-05-02T08:59:55;102574.41;;;11.88;100.00
60355;BME280;46198;51.464;-0.066;2023-05-02T09:02:36;102572.81;;;11.93;100.00
60355;BME280;46198;51.464;-0.066;2023-05-02T09:05:10;102574.88;;;11.91;100.00
60355;BME280;46198;51.464;-0.066;2023-05-02T09:07:43;102588.38;;;12.00;100.00
60355;BME280;46198;51.464;-0.066;2023-05-02T09:10:12;102586.03;;;11.96;100.00
60355;BME280;46198;51.464;-0.066;2023-05-02T09:12:40;102590.47;;;11.97;100.00
60355;BME280;46198;51.464;-0.066;2023-05-02T09:15:10;102587.22;;;11.79;100.00
60355;BME280;46198;51.464;-0.066;2023-05-02T09:17:39;102595.69;;;11.84;100.00
60355;BME280;46198;51.464;-0.066;2023-05-02T09:20:10;102583.06;;;11.83;100.00
60355;BME280;46198;51.464;-0.066;2023-05-02T09:22:38;102601.75;;;11.94;100.00
60355;BME280;46198;51.464;-0.066;2023-05-02T09:25:09;102596.63;;;11.91;100.00
60355;BME280;46198;51.464;-0.066;2023-05-02T09:27:53;102607.81;;;11.96;100.00
60355;BME280;46198;51.464;-0.066;2023-05-02T09:30:24;102609.69;;;11.96;100.00
60355;BME280;46198;51.464;-0.066;2023-05-02T09:32:52;102624.06;;;12.05;100.00
60355;BME280;46198;51.464;-0.066;2023-05-02T09:35:23;102617.78;;;12.04;100.00
60355;BME280;46198;51.464;-0.066;2023-05-02T09:37:52;102614.06;;;12.05;100.00
60355;BME280;46198;51.464;-0.066;2023-05-02T09:40:21;102623.06;;;12.06;100.00
60355;BME280;46198;51.464;-0.066;2023-05-02T09:42:50;102617.91;;;12.11;100.00
60355;BME280;46198;51.464;-0.066;2023-05-02T09:45:22;102626.91;;;12.26;100.00
60355;BME280;46198;51.464;-0.066;2023-05-02T09:47:51;102629.00;;;12.24;100.00
60355;BME280;46198;51.464;-0.066;2023-05-02T09:50:34;102635.28;;;12.39;100.00
60355;BME280;46198;51.464;-0.066;2023-05-02T09:53:04;102636.88;;;12.49;100.00
60355;BME280;46198;51.464;-0.066;2023-05-02T09:55:32;102634.91;;;12.57;100.00
60355;BME280;46198;51.464;-0.066;2023-05-02T09:58:01;102636.88;;;12.49;100.00
60355;BME280;46198;51.464;-0.066;2023-05-02T10:00:40;102641.03;;;12.59;100.00
60355;BME280;46198;51.464;-0.066;2023-05-02T10:03:09;102637.34;;;12.37;100.00
60355;BME280;46198;51.464;-0.066;2023-05-02T10:05:38;102626.44;;;12.52;100.00
60355;BME280;46198;51.464;-0.066;2023-05-02T10:08:07;102625.41;;;12.53;100.00
60355;BME280;46198;51.464;-0.066;2023-05-02T10:10:37;102621.47;;;12.71;100.00
60355;BME280;46198;51.464;-0.066;2023-05-02T10:13:07;102612.34;;;12.78;100.00
60355;BME280;46198;51.464;-0.066;2023-05-02T10:15:42;102614.75;;;12.88;100.00
60355;BME280;46198;51.464;-0.066;2023-05-02T10:18:16;102613.81;;;13.17;100.00
60355;BME280;46198;51.464;-0.066;2023-05-02T10:20:55;102616.50;;;13.32;100.00
60355;BME280;46198;51.464;-0.066;2023-05-02T10:23:25;102621.78;;;13.55;100.00
60355;BME280;46198;51.464;-0.066;2023-05-02T10:25:54;102618.38;;;13.74;100.00
60355;BME280;46198;51.464;-0.066;2023-05-02T10:28:25;102619.50;;;13.87;100.00
60355;BME280;46198;51.464;-0.066;2023-05-02T10:30:53;102617.50;;;13.95;100.00
60355;BME280;46198;51.464;-0.066;2023-05-02T10:33:22;102611.75;;;14.18;100.00
60355;BME280;46198;51.464;-0.066;2023-05-02T10:36:10;102616.50;;;14.38;100.00
60355;BME280;46198;51.464;-0.066;2023-05-02T10:38:50;102621.88;;;14.59;100.00
60355;BME280;46198;51.464;-0.066;2023-05-02T10:41:21;102625.03;;;14.56;100.00
60355;BME280;46198;51.464;-0.066;2023-05-02T10:43:50;102614.41;;;14.75;100.00
60355;BME280;46198;51.464;-0.066;2023-05-02T10:46:28;102618.91;;;15.02;100.00
60355;BME280;46198;51.464;-0.066;2023-05-02T10:49:02;102623.97;;;14.99;100.00
60355;BME280;46198;51.464;-0.066;2023-05-02T10:51:33;102623.50;;;14.89;100.00
60355;BME280;46198;51.464;-0.066;2023-05-02T10:54:18;102641.22;;;14.99;100.00
60355;BME280;46198;51.464;-0.066;2023-05-02T10:57:06;102631.38;;;15.25;95.08
60355;BME280;46198;51.464;-0.066;2023-05-02T10:59:35;102636.25;;;15.23;99.37
60355;BME280;46198;51.464;-0.066;2023-05-02T11:02:04;102621.28;;;15.39;99.04
60355;BME280;46198;51.464;-0.066;2023-05-02T11:04:58;102641.59;;;15.84;100.00
60355;BME280;46198;51.464;-0.066;2023-05-02T11:07:33;102653.59;;;15.70;93.20
60355;BME280;46198;51.464;-0.066;2023-05-02T11:10:25;102654.66;;;15.69;94.81
60355;BME280;46198;51.464;-0.066;2023-05-02T11:12:54;102646.78;;;15.39;91.05
60355;BME280;46198;51.464;-0.066;2023-05-02T11:15:53;102649.78;;;15.64;91.57
60355;BME280;46198;51.464;-0.066;2023-05-02T11:18:21;102649.56;;;15.52;96.15
60355;BME280;46198;51.464;-0.066;2023-05-02T11:20:50;102649.97;;;15.63;96.81
60355;BME280;46198;51.464;-0.066;2023-05-02T11:23:23;102656.75;;;15.87;94.32
60355;BME280;46198;51.464;-0.066;2023-05-02T11:25:55;102659.06;;;16.03;94.70
60355;BME280;46198;51.464;-0.066;2023-05-02T11:28:41;102658.66;;;15.86;94.33
60355;BME280;46198;51.464;-0.066;2023-05-02T11:34:24;102656.94;;;15.99;88.07
60355;BME280;46198;51.464;-0.066;2023-05-02T11:36:52;102645.78;;;15.67;85.49
60355;BME280;46198;51.464;-0.066;2023-05-02T11:39:21;102644.31;;;15.71;88.89
60355;BME280;46198;51.464;-0.066;2023-05-02T11:41:49;102639.69;;;15.78;93.86
60355;BME280;46198;51.464;-0.066;2023-05-02T11:44:17;102633.38;;;15.71;97.78
60355;BME280;46198;51.464;-0.066;2023-05-02T11:46:45;102637.56;;;15.67;98.01
60355;BME280;46198;51.464;-0.066;2023-05-02T11:49:14;102635.69;;;15.94;96.12
60355;BME280;46198;51.464;-0.066;2023-05-02T11:51:42;102635.03;;;16.12;86.10
60355;BME280;46198;51.464;-0.066;2023-05-02T11:54:17;102640.50;;;16.18;91.14
60355;BME280;46198;51.464;-0.066;2023-05-02T11:56:47;102645.06;;;16.51;91.49
60355;BME280;46198;51.464;-0.066;2023-05-02T11:59:15;102646.84;;;16.06;87.93
60355;BME280;46198;51.464;-0.066;2023-05-02T12:01:47;102639.56;;;16.65;85.61
60355;BME280;46198;51.464;-0.066;2023-05-02T12:04:15;102652.53;;;16.96;89.91
60355;BME280;46198;51.464;-0.066;2023-05-02T12:06:54;102661.56;;;17.48;90.69
60355;BME280;46198;51.464;-0.066;2023-05-02T12:09:22;102657.88;;;17.22;82.66
60355;BME280;46198;51.464;-0.066;2023-05-02T12:11:52;102667.00;;;17.16;82.45
60355;BME280;46198;51.464;-0.066;2023-05-02T12:14:27;102666.44;;;17.01;84.06
60355;BME280;46198;51.464;-0.066;2023-05-02T12:16:57;102661.25;;;16.66;82.57
60355;BME280;46198;51.464;-0.066;2023-05-02T12:19:26;102665.25;;;16.83;80.47
60355;BME280;46198;51.464;-0.066;2023-05-02T12:21:54;102661.25;;;16.66;80.26
60355;BME280;46198;51.464;-0.066;2023-05-02T12:24:22;102668.50;;;16.40;83.96
60355;BME280;46198;51.464;-0.066;2023-05-02T12:27:10;102669.66;;;16.84;84.02
60355;BME280;46198;51.464;-0.066;2023-05-02T12:29:40;102665.22;;;16.97;84.73
60355;BME280;46198;51.464;-0.066;2023-05-02T12:32:08;102666.09;;;16.84;80.88
60355;BME280;46198;51.464;-0.066;2023-05-02T12:34:37;102667.91;;;17.03;78.78
60355;BME280;46198;51.464;-0.066;2023-05-02T12:37:07;102666.53;;;16.68;81.42
60355;BME280;46198;51.464;-0.066;2023-05-02T12:39:36;102680.22;;;16.74;82.52
60355;BME280;46198;51.464;-0.066;2023-05-02T12:42:08;102674.59;;;16.56;81.27
60355;BME280;46198;51.464;-0.066;2023-05-02T12:44:38;102671.88;;;16.49;80.13
60355;BME280;46198;51.464;-0.066;2023-05-02T12:47:08;102680.91;;;16.63;77.74
60355;BME280;46198;51.464;-0.066;2023-05-02T12:49:49;102667.41;;;16.55;75.70
60355;BME280;46198;51.464;-0.066;2023-05-02T12:52:18;102680.13;;;16.43;79.64
60355;BME280;46198;51.464;-0.066;2023-05-02T12:54:46;102670.72;;;16.90;84.09
60355;BME280;46198;51.464;-0.066;2023-05-02T12:57:22;102682.38;;;16.66;78.40
60355;BME280;46198;51.464;-0.066;2023-05-02T12:59:52;102680.03;;;16.69;79.11
60355;BME280;46198;51.464;-0.066;2023-05-02T13:02:20;102680.66;;;16.71;77.17
60355;BME280;46198;51.464;-0.066;2023-05-02T13:04:49;102677.75;;;16.59;79.61